createdAt,value
2023-03-29T00:01:35.139Z,49.39
2023-03-29T00:04:38.995Z,48.70
2023-03-29T00:07:41.738Z,49.08
2023-03-29T00:10:44.235Z,48.70
2023-03-29T00:13:46.393Z,48.69
2023-03-29T00:16:48.949Z,48.56
2023-03-29T00:19:51.322Z,48.34
2023-03-29T00:22:53.798Z,48.11
2023-03-29T00:25:56.655Z,48.96
2023-03-29T00:28:59.169Z,50.32
2023-03-29T00:32:01.401Z,51.17
2023-03-29T00:35:06.141Z,50.91
2023-03-29T00:38:08.579Z,51.85
2023-03-29T00:41:11.748Z,51.72
2023-03-29T00:44:54.976Z,51.80
2023-03-29T00:48:07.571Z,52.39
2023-03-29T00:51:14.285Z,53.14
2023-03-29T00:54:18.695Z,53.06
2023-03-29T00:57:25.254Z,53.07
2023-03-29T01:00:34.884Z,54.95
2023-03-29T01:03:46.376Z,54.56
2023-03-29T01:07:06.592Z,56.10
2023-03-29T01:10:14.522Z,55.94
2023-03-29T01:13:26.234Z,55.28
2023-03-29T01:16:30.368Z,56.36
2023-03-29T01:19:42.248Z,56.51
2023-03-29T01:23:16.883Z,56.94
2023-03-29T01:26:27.072Z,58.05
2023-03-29T01:29:40.080Z,57.14
2023-03-29T01:32:50.497Z,57.69
2023-03-29T01:36:00.056Z,57.91
2023-03-29T01:39:06.163Z,58.89
2023-03-29T01:42:22.620Z,57.88
2023-03-29T01:45:36.604Z,58.59
2023-03-29T01:48:51.559Z,58.08
2023-03-29T01:52:17.066Z,57.76
2023-03-29T01:55:32.928Z,57.75
2023-03-29T01:58:40.067Z,56.34
2023-03-29T02:01:49.486Z,57.07
2023-03-29T02:04:54.155Z,57.33
2023-03-29T02:07:58.316Z,58.34
2023-03-29T02:11:01.547Z,58.64
2023-03-29T02:14:04.260Z,58.63
2023-03-29T02:17:26.517Z,58.96
2023-03-29T02:20:38.745Z,58.11
2023-03-29T02:23:45.624Z,59.20
2023-03-29T02:26:48.986Z,59.75
2023-03-29T02:29:51.228Z,58.97
2023-03-29T02:33:00.272Z,59.20
2023-03-29T02:36:10.241Z,59.02
2023-03-29T02:39:15.648Z,59.93
2023-03-29T02:42:20.324Z,60.79
2023-03-29T02:45:25.099Z,61.08
2023-03-29T02:48:29.359Z,59.02
2023-03-29T02:51:34.125Z,59.19
2023-03-29T02:54:43.373Z,59.98
2023-03-29T02:57:45.932Z,61.01
2023-03-29T03:00:49.039Z,61.10
2023-03-29T03:03:51.887Z,60.27
2023-03-29T03:06:54.236Z,60.67
2023-03-29T03:09:57.674Z,61.47
2023-03-29T03:12:59.874Z,62.32
2023-03-29T03:16:04.868Z,61.79
2023-03-29T03:19:07.211Z,62.06
2023-03-29T03:22:10.010Z,62.29
2023-03-29T03:25:12.934Z,61.60
2023-03-29T03:28:15.517Z,63.08
2023-03-29T03:31:19.585Z,61.82
2023-03-29T03:34:26.292Z,61.27
2023-03-29T03:37:28.867Z,61.17
2023-03-29T03:40:32.343Z,61.53
2023-03-29T03:43:34.861Z,62.19
2023-03-29T03:46:38.204Z,61.82
2023-03-29T03:49:40.968Z,60.73
2023-03-29T03:52:43.606Z,61.95
2023-03-29T03:55:53.404Z,62.28
2023-03-29T03:58:56.926Z,63.08
2023-03-29T04:01:59.917Z,63.49
2023-03-29T04:05:03.441Z,64.49
2023-03-29T04:08:06.691Z,64.14
2023-03-29T04:11:10.765Z,64.75
2023-03-29T04:14:13.100Z,65.24
2023-03-29T04:17:17.377Z,65.56
2023-03-29T04:20:20.267Z,64.87
2023-03-29T04:23:23.006Z,64.81
2023-03-29T04:26:25.827Z,64.19
2023-03-29T04:29:30.452Z,63.80
2023-03-29T04:32:33.652Z,64.18
2023-03-29T04:35:36.543Z,64.15
2023-03-29T04:38:43.362Z,64.30
2023-03-29T04:41:50.443Z,64.44
2023-03-29T04:44:53.333Z,64.65
2023-03-29T04:48:01.706Z,64.48
2023-03-29T04:51:05.722Z,64.91
2023-03-29T04:54:09.014Z,65.14
2023-03-29T04:57:12.263Z,64.87
2023-03-29T05:00:16.633Z,65.02
2023-03-29T05:03:21.057Z,64.08
2023-03-29T05:06:23.982Z,64.08
2023-03-29T05:09:26.319Z,64.10
2023-03-29T05:12:28.871Z,62.78
2023-03-29T05:15:32.075Z,63.26
2023-03-29T05:18:34.719Z,63.23
2023-03-29T05:21:38.666Z,62.10
2023-03-29T05:24:42.409Z,61.60
2023-03-29T05:27:45.896Z,62.31
2023-03-29T05:31:00.694Z,63.08
2023-03-29T05:34:05.269Z,61.94
2023-03-29T05:37:09.081Z,61.95
2023-03-29T05:40:13.560Z,62.25
2023-03-29T05:43:16.833Z,61.87
2023-03-29T05:46:19.463Z,62.60
2023-03-29T05:49:23.194Z,61.23
2023-03-29T05:52:26.408Z,61.50
2023-03-29T05:55:29.519Z,61.16
2023-03-29T05:58:33.994Z,61.30
2023-03-29T06:01:36.832Z,59.61
2023-03-29T06:04:39.994Z,59.83
2023-03-29T06:07:45.146Z,60.00
2023-03-29T06:10:49.078Z,59.07
2023-03-29T06:13:52.989Z,58.54
2023-03-29T06:16:56.531Z,58.03
2023-03-29T06:19:59.582Z,57.48
2023-03-29T06:23:03.483Z,57.00
2023-03-29T06:26:06.165Z,56.78
2023-03-29T06:29:10.698Z,57.09
2023-03-29T06:32:15.441Z,58.21
2023-03-29T06:35:19.548Z,56.33
2023-03-29T06:38:22.121Z,56.48
2023-03-29T06:41:26.425Z,56.17
2023-03-29T06:44:29.552Z,56.38
2023-03-29T06:47:32.884Z,56.04
2023-03-29T06:50:36.183Z,55.89
2023-03-29T06:53:38.872Z,55.91
2023-03-29T06:56:41.229Z,53.91
2023-03-29T06:59:44.196Z,54.31
2023-03-29T07:02:47.334Z,54.56
2023-03-29T07:05:52.112Z,55.28
2023-03-29T07:09:00.794Z,54.87
2023-03-29T07:12:05.041Z,55.57
2023-03-29T07:15:08.750Z,54.39
2023-03-29T07:18:19.022Z,55.33
2023-03-29T07:21:21.333Z,54.60
2023-03-29T07:24:23.878Z,55.30
2023-03-29T07:27:26.963Z,55.59
2023-03-29T07:30:32.153Z,55.50
2023-03-29T07:33:39.797Z,55.13
2023-03-29T07:36:45.185Z,54.39
2023-03-29T07:39:47.575Z,52.36
2023-03-29T07:42:53.982Z,49.97
2023-03-29T07:46:01.660Z,50.51
2023-03-29T07:49:04.666Z,49.73
2023-03-29T07:52:07.008Z,48.42
2023-03-29T07:55:11.571Z,49.37
2023-03-29T07:58:16.730Z,48.86
2023-03-29T08:01:19.997Z,48.49
2023-03-29T08:04:27.115Z,48.32
2023-03-29T08:11:28.960Z,47.79
2023-03-29T08:14:32.054Z,47.73
2023-03-29T08:17:35.254Z,45.72
2023-03-29T08:20:37.936Z,45.69
2023-03-29T08:23:40.195Z,44.52
2023-03-29T08:26:43.545Z,43.94
2023-03-29T08:29:46.621Z,41.64
2023-03-29T08:32:52.188Z,41.48
2023-03-29T08:35:56.446Z,40.78
2023-03-29T08:38:59.606Z,39.05
2023-03-29T08:42:50.302Z,38.68
2023-03-29T08:46:00.033Z,37.79
2023-03-29T08:49:08.514Z,38.88
2023-03-29T08:52:28.275Z,36.27
2023-03-29T08:55:38.244Z,36.06
2023-03-29T08:58:46.605Z,35.49
2023-03-29T09:01:53.094Z,35.17
2023-03-29T09:05:01.172Z,33.94
2023-03-29T09:08:04.101Z,34.17
2023-03-29T09:11:26.104Z,33.37
2023-03-29T09:14:50.064Z,32.67
2023-03-29T09:18:21.899Z,32.74
2023-03-29T09:21:50.603Z,31.36
2023-03-29T09:25:07.191Z,32.94
2023-03-29T09:28:14.358Z,33.17
2023-03-29T09:31:44.848Z,34.00
2023-03-29T09:35:00.912Z,31.66
2023-03-29T09:38:09.370Z,32.60
2023-03-29T09:41:24.650Z,33.33
2023-03-29T09:44:37.299Z,33.27
2023-03-29T09:47:45.961Z,34.80
2023-03-29T09:50:51.476Z,33.78
2023-03-29T09:53:56.589Z,31.83
2023-03-29T09:57:00.247Z,34.33
2023-03-29T10:00:06.105Z,33.28
2023-03-29T10:03:19.603Z,33.60
2023-03-29T10:06:24.453Z,34.12
2023-03-29T10:09:29.991Z,33.24
2023-03-29T10:12:33.564Z,33.77
2023-03-29T10:15:36.036Z,33.75
2023-03-29T10:18:40.684Z,33.39
2023-03-29T10:21:42.959Z,34.35
2023-03-29T10:24:53.983Z,34.47
2023-03-29T10:28:13.419Z,33.23
2023-03-29T10:31:22.235Z,34.38
2023-03-29T10:34:28.095Z,35.30
2023-03-29T10:37:31.569Z,34.71
2023-03-29T10:40:35.590Z,35.13
2023-03-29T10:43:43.506Z,36.13
2023-03-29T10:46:46.466Z,36.56
2023-03-29T10:49:56.373Z,36.35
2023-03-29T10:52:59.405Z,35.78
2023-03-29T10:56:23.540Z,36.25
2023-03-29T10:59:47.584Z,38.25
2023-03-29T11:03:41.362Z,37.53
2023-03-29T11:06:52.487Z,37.23
2023-03-29T11:10:28.425Z,36.37
2023-03-29T11:13:40.999Z,36.43
2023-03-29T11:16:50.982Z,38.88
2023-03-29T11:20:04.909Z,37.32
2023-03-29T11:23:32.313Z,37.37
2023-03-29T11:26:57.918Z,36.95
2023-03-29T11:30:22.012Z,37.89
2023-03-29T11:33:52.000Z,38.20
2023-03-29T11:37:13.622Z,36.22
2023-03-29T11:40:37.239Z,36.25
2023-03-29T11:43:51.329Z,36.30
2023-03-29T11:47:18.661Z,35.67
2023-03-29T11:50:25.744Z,37.58
2023-03-29T11:53:37.642Z,37.08
2023-03-29T11:56:47.406Z,36.83
2023-03-29T11:59:49.703Z,36.09
2023-03-29T12:03:02.836Z,37.33
2023-03-29T12:06:37.819Z,36.99
2023-03-29T12:09:47.737Z,36.22
2023-03-29T12:13:07.660Z,37.15
2023-03-29T12:16:35.119Z,35.81
2023-03-29T12:19:45.346Z,36.74
2023-03-29T12:22:49.162Z,35.55
2023-03-29T12:26:11.913Z,37.43
2023-03-29T12:29:29.593Z,38.49
2023-03-29T12:32:50.598Z,36.81
2023-03-29T12:36:28.492Z,37.69
2023-03-29T12:39:33.301Z,37.02
2023-03-29T12:42:52.484Z,37.47
2023-03-29T12:46:01.997Z,37.22
2023-03-29T12:49:13.039Z,37.76
2023-03-29T12:52:31.397Z,38.18
2023-03-29T12:55:42.940Z,37.60
2023-03-29T12:58:45.405Z,38.44
2023-03-29T13:02:13.975Z,38.60
2023-03-29T13:05:36.798Z,39.32
2023-03-29T13:08:42.384Z,40.54
2023-03-29T13:11:45.646Z,39.29
2023-03-29T13:14:54.475Z,39.50
2023-03-29T13:18:26.636Z,39.98
2023-03-29T13:21:31.455Z,39.37
2023-03-29T13:25:15.066Z,39.24
2023-03-29T13:28:39.264Z,40.07
2023-03-29T13:32:26.981Z,39.77
2023-03-29T13:35:55.299Z,39.33
2023-03-29T13:39:05.435Z,39.59
2023-03-29T13:42:39.983Z,39.23
2023-03-29T13:45:42.492Z,39.80
2023-03-29T13:49:14.372Z,38.33
2023-03-29T13:52:22.633Z,38.88
2023-03-29T13:55:31.572Z,39.44
2023-03-29T13:58:48.224Z,39.22
2023-03-29T14:01:57.225Z,39.96
2023-03-29T14:05:04.328Z,40.37
2023-03-29T14:08:25.403Z,40.54
2023-03-29T14:11:30.035Z,40.65
2023-03-29T14:14:32.920Z,41.41
2023-03-29T14:17:36.956Z,41.38
2023-03-29T14:20:44.439Z,42.77
2023-03-29T14:23:54.053Z,42.40
2023-03-29T14:26:56.539Z,41.16
2023-03-29T14:29:59.032Z,41.16
2023-03-29T14:33:05.060Z,41.48
2023-03-29T14:36:15.925Z,41.81
2023-03-29T14:39:21.444Z,42.95
2023-03-29T14:42:28.763Z,42.36
2023-03-29T14:45:32.160Z,43.06
2023-03-29T14:48:35.695Z,42.95
2023-03-29T14:51:40.499Z,42.45
2023-03-29T14:54:47.004Z,42.66
2023-03-29T14:57:51.426Z,42.91
2023-03-29T15:00:54.934Z,43.90
2023-03-29T15:04:09.036Z,43.35
2023-03-29T15:07:11.495Z,42.95
2023-03-29T15:10:19.268Z,42.60
2023-03-29T15:13:24.655Z,42.19
2023-03-29T15:16:27.950Z,42.81
2023-03-29T15:19:31.594Z,43.03
2023-03-29T15:22:34.441Z,41.68
2023-03-29T15:25:45.812Z,42.81
2023-03-29T15:28:49.213Z,41.78
2023-03-29T15:31:56.902Z,42.22
2023-03-29T15:35:01.398Z,42.04
2023-03-29T15:38:06.140Z,43.98
2023-03-29T15:41:08.970Z,42.46
2023-03-29T15:44:12.478Z,42.54
2023-03-29T15:47:14.974Z,43.19
2023-03-29T15:50:17.465Z,43.31
2023-03-29T15:53:23.642Z,44.31
2023-03-29T15:56:26.690Z,43.01
2023-03-29T15:59:30.923Z,42.32
2023-03-29T16:02:34.125Z,42.56
2023-03-29T16:05:36.582Z,41.96
2023-03-29T16:08:38.985Z,43.37
2023-03-29T16:11:42.934Z,44.19
2023-03-29T16:14:45.103Z,43.52
2023-03-29T16:17:47.603Z,43.88
2023-03-29T16:20:49.751Z,43.93
2023-03-29T16:23:52.156Z,44.15
2023-03-29T16:26:56.480Z,44.94
2023-03-29T16:29:59.057Z,44.09
2023-03-29T16:33:06.117Z,45.24
2023-03-29T16:36:09.961Z,46.31
2023-03-29T16:39:15.198Z,45.64
2023-03-29T16:42:17.727Z,45.94
2023-03-29T16:45:20.375Z,45.21
2023-03-29T16:48:23.749Z,44.73
2023-03-29T16:51:26.187Z,45.22
2023-03-29T16:54:29.631Z,44.99
2023-03-29T16:57:31.825Z,45.11
2023-03-29T17:00:34.743Z,46.15
2023-03-29T17:03:37.660Z,46.60
2023-03-29T17:06:40.924Z,46.79
2023-03-29T17:09:43.154Z,47.61
2023-03-29T17:12:45.849Z,48.68
2023-03-29T17:15:52.089Z,48.64
2023-03-29T17:18:54.584Z,50.00
2023-03-29T17:21:56.878Z,50.06
2023-03-29T17:24:59.400Z,50.45
2023-03-29T17:28:01.640Z,51.25
2023-03-29T17:31:07.481Z,51.56
2023-03-29T17:34:09.812Z,52.22
2023-03-29T17:37:12.848Z,53.58
2023-03-29T17:40:14.979Z,53.41
2023-03-29T17:43:17.509Z,54.23
2023-03-29T17:46:22.801Z,54.59
2023-03-29T17:49:25.479Z,54.36
2023-03-29T17:52:27.721Z,54.32
2023-03-29T17:55:30.178Z,54.73
2023-03-29T17:58:32.431Z,55.46
2023-03-29T18:01:36.402Z,55.62
2023-03-29T18:04:41.007Z,56.45
2023-03-29T18:07:43.272Z,55.84
2023-03-29T18:10:45.905Z,56.21
2023-03-29T18:13:52.402Z,56.76
2023-03-29T18:16:55.752Z,56.95
2023-03-29T18:19:57.950Z,56.79
2023-03-29T18:23:00.378Z,56.74
2023-03-29T18:26:04.633Z,58.95
2023-03-29T18:29:09.736Z,59.02
2023-03-29T18:32:12.481Z,57.90
2023-03-29T18:35:15.083Z,57.44
2023-03-29T18:38:19.144Z,57.56
2023-03-29T18:41:23.783Z,58.04
2023-03-29T18:44:27.257Z,58.02
2023-03-29T18:47:29.834Z,58.96
2023-03-29T18:50:32.445Z,58.40
2023-03-29T18:53:36.309Z,58.16
2023-03-29T18:56:38.674Z,60.18
2023-03-29T18:59:41.215Z,59.54
2023-03-29T19:02:43.536Z,59.98
2023-03-29T19:05:46.293Z,59.73
2023-03-29T19:08:48.470Z,59.49
2023-03-29T19:11:51.068Z,60.22
2023-03-29T19:14:53.278Z,59.94
2023-03-29T19:17:55.868Z,60.02
2023-03-29T19:20:58.406Z,60.50
2023-03-29T19:24:03.943Z,60.61
2023-03-29T19:27:06.559Z,61.29
2023-03-29T19:30:09.779Z,60.91
2023-03-29T19:33:12.344Z,61.31
2023-03-29T19:36:14.832Z,61.85
2023-03-29T19:39:17.406Z,61.43
2023-03-29T19:42:20.181Z,62.04
2023-03-29T19:45:23.390Z,62.66
2023-03-29T19:48:26.063Z,62.74
2023-03-29T19:51:28.366Z,62.86
2023-03-29T19:54:30.972Z,63.23
2023-03-29T19:57:34.201Z,63.74
2023-03-29T20:00:38.678Z,63.84
2023-03-29T20:03:43.528Z,63.92
2023-03-29T20:06:46.309Z,64.09
2023-03-29T20:09:48.778Z,63.20
2023-03-29T20:12:51.002Z,63.19
2023-03-29T20:15:54.019Z,63.30
2023-03-29T20:18:56.244Z,63.79
2023-03-29T20:22:00.605Z,63.29
2023-03-29T20:25:02.768Z,63.74
2023-03-29T20:28:06.558Z,63.64
2023-03-29T20:31:10.991Z,64.43
2023-03-29T20:34:13.493Z,65.19
2023-03-29T20:37:15.619Z,65.04
2023-03-29T20:40:18.005Z,65.90
2023-03-29T20:43:20.296Z,65.62
2023-03-29T20:46:23.854Z,66.51
2023-03-29T20:49:26.645Z,66.42
2023-03-29T20:52:29.134Z,65.63
2023-03-29T20:55:33.313Z,65.64
2023-03-29T20:58:35.728Z,65.78
2023-03-29T21:01:40.753Z,65.88
2023-03-29T21:04:44.088Z,65.86
2023-03-29T21:07:47.892Z,66.86
2023-03-29T21:10:51.640Z,67.81
2023-03-29T21:13:53.974Z,68.50
2023-03-29T21:16:57.231Z,68.54
2023-03-29T21:19:59.472Z,70.19
2023-03-29T21:23:01.868Z,68.18
2023-03-29T21:26:06.742Z,67.92
2023-03-29T21:29:09.468Z,68.21
2023-03-29T21:32:11.677Z,68.94
2023-03-29T21:35:14.113Z,69.06
2023-03-29T21:38:17.133Z,69.21
2023-03-29T21:41:20.250Z,68.38
2023-03-29T21:44:35.825Z,67.21
2023-03-29T21:47:38.306Z,67.96
2023-03-29T21:50:40.555Z,67.70
2023-03-29T21:53:43.071Z,67.44
2023-03-29T21:56:47.700Z,67.90
2023-03-29T21:59:50.208Z,67.23
2023-03-29T22:02:52.465Z,66.70
2023-03-29T22:05:56.899Z,67.27
2023-03-29T22:09:00.664Z,67.22
2023-03-29T22:12:03.871Z,67.89
2023-03-29T22:15:07.809Z,67.64
2023-03-29T22:18:10.476Z,67.36
2023-03-29T22:21:19.704Z,67.86
2023-03-29T22:24:22.236Z,67.33
2023-03-29T22:27:24.515Z,67.47
2023-03-29T22:30:27.259Z,67.88
2023-03-29T22:33:29.531Z,67.87
2023-03-29T22:36:32.142Z,68.33
2023-03-29T22:39:36.043Z,68.25
2023-03-29T22:42:38.876Z,69.12
2023-03-29T22:45:41.278Z,70.49
2023-03-29T22:48:43.700Z,71.60
2023-03-29T22:51:46.202Z,72.87
2023-03-29T22:54:48.719Z,73.89
2023-03-29T22:57:50.918Z,73.97
2023-03-29T23:00:53.365Z,73.97
2023-03-29T23:03:55.708Z,74.42
2023-03-29T23:06:58.564Z,74.71
2023-03-29T23:10:00.850Z,74.73
2023-03-29T23:13:08.613Z,74.82
2023-03-29T23:16:11.020Z,75.24
2023-03-29T23:19:13.549Z,74.76
2023-03-29T23:22:15.910Z,74.54
2023-03-29T23:25:18.412Z,74.61
2023-03-29T23:28:24.510Z,74.27
2023-03-29T23:31:27.047Z,73.84
2023-03-29T23:34:29.436Z,74.28
2023-03-29T23:37:32.078Z,74.90
2023-03-29T23:40:34.222Z,76.17
2023-03-29T23:43:40.535Z,75.06
2023-03-29T23:46:43.017Z,75.53
2023-03-29T23:49:45.600Z,75.96
2023-03-29T23:52:49.345Z,76.21
2023-03-29T23:55:52.010Z,76.42
2023-03-29T23:58:54.492Z,77.54
